createdAt,value
2018-07-06T00:00:36.506Z,100899.38
2018-07-06T00:03:30.299Z,100902.50
2018-07-06T00:06:24.190Z,100900.79
2018-07-06T00:09:17.934Z,100896.48
2018-07-06T00:12:11.701Z,100897.69
2018-07-06T00:15:05.410Z,100900.56
2018-07-06T00:17:59.158Z,100898.28
2018-07-06T00:20:52.893Z,100897.88
2018-07-06T00:23:46.529Z,100898.01
2018-07-06T00:26:40.306Z,100901.77
2018-07-06T00:29:34.300Z,100904.30
2018-07-06T00:32:27.852Z,100904.69
2018-07-06T00:35:21.575Z,100904.47
2018-07-06T00:38:15.396Z,100914.08
2018-07-06T00:41:09.027Z,100907.83
2018-07-06T00:44:02.899Z,100919.75
2018-07-06T00:46:56.635Z,100914.83
2018-07-06T00:49:50.358Z,100926.61
2018-07-06T00:52:44.090Z,100922.25
2018-07-06T00:55:37.721Z,100919.60
2018-07-06T00:58:31.462Z,100924.09
2018-07-06T01:01:25.289Z,100921.50
2018-07-06T01:04:19.031Z,100925.59
2018-07-06T01:07:12.663Z,100929.19
2018-07-06T01:10:06.577Z,100944.34
2018-07-06T01:13:01.341Z,100937.06
2018-07-06T01:15:54.929Z,100942.08
2018-07-06T01:18:48.706Z,100936.20
2018-07-06T01:21:42.448Z,100934.02
2018-07-06T01:24:35.931Z,100933.62
2018-07-06T01:27:29.569Z,100937.95
2018-07-06T01:30:23.111Z,100944.77
2018-07-06T01:33:16.928Z,100943.67
2018-07-06T01:36:10.573Z,100944.17
2018-07-06T01:39:04.218Z,100950.00
2018-07-06T01:41:57.789Z,100952.78
2018-07-06T01:44:51.555Z,100952.53
2018-07-06T01:47:39.120Z,100956.55
2018-07-06T01:50:32.807Z,100957.41
2018-07-06T01:53:26.469Z,100965.23
2018-07-06T01:56:20.278Z,100962.91
2018-07-06T01:59:13.746Z,100968.56
2018-07-06T02:02:07.436Z,100970.05
2018-07-06T02:05:01.153Z,100970.74
2018-07-06T02:07:54.982Z,100977.82
2018-07-06T02:10:48.540Z,100969.13
2018-07-06T02:13:42.142Z,100970.05
2018-07-06T02:16:35.913Z,100967.11
2018-07-06T02:19:29.793Z,100974.39
2018-07-06T02:22:23.486Z,100970.17
2018-07-06T02:25:17.113Z,100971.67
2018-07-06T02:28:10.982Z,100970.70
2018-07-06T02:31:05.067Z,100973.09
2018-07-06T02:33:58.836Z,100987.55
2018-07-06T02:36:52.558Z,100989.03
2018-07-06T02:39:46.176Z,100987.05
2018-07-06T02:42:39.882Z,100974.45
2018-07-06T02:45:33.685Z,100983.23
2018-07-06T02:48:27.462Z,100978.89
2018-07-06T02:51:15.234Z,100976.24
2018-07-06T02:54:08.649Z,100981.74
2018-07-06T02:57:02.375Z,100982.37
2018-07-06T02:59:55.906Z,100982.42
2018-07-06T03:02:49.626Z,100981.48
2018-07-06T03:05:43.242Z,100982.03
2018-07-06T03:08:37.252Z,100978.16
2018-07-06T03:11:30.831Z,100988.90
2018-07-06T03:14:24.435Z,100988.05
2018-07-06T03:17:18.166Z,100988.77
2018-07-06T03:20:11.776Z,100987.58
2018-07-06T03:23:05.614Z,100995.30
2018-07-06T03:25:59.302Z,100992.70
2018-07-06T03:28:52.826Z,100996.66
2018-07-06T03:31:46.557Z,101009.25
2018-07-06T03:34:40.291Z,101004.42
2018-07-06T03:37:34.098Z,101003.62
2018-07-06T03:40:27.629Z,100994.58
2018-07-06T03:43:21.951Z,101001.29
2018-07-06T03:46:15.811Z,101006.31
2018-07-06T03:49:09.350Z,101015.07
2018-07-06T03:52:03.189Z,101019.56
2018-07-06T03:54:57.104Z,101019.30
2018-07-06T03:57:50.789Z,101025.02
2018-07-06T04:00:44.666Z,101029.52
2018-07-06T04:03:38.298Z,101040.95
2018-07-06T04:06:32.024Z,101040.08
2018-07-06T04:09:25.757Z,101048.42
2018-07-06T04:12:19.755Z,101041.81
2018-07-06T04:15:13.474Z,101044.75
2018-07-06T04:18:07.380Z,101055.16
2018-07-06T04:21:01.113Z,101057.06
2018-07-06T04:23:54.724Z,101059.63
2018-07-06T04:26:48.489Z,101062.33
2018-07-06T04:29:42.042Z,101066.06
2018-07-06T04:32:29.989Z,101069.88
2018-07-06T04:35:23.606Z,101078.59
2018-07-06T04:38:17.408Z,101080.70
2018-07-06T04:41:05.066Z,101078.84
2018-07-06T04:43:58.638Z,101086.92
2018-07-06T04:46:52.331Z,101081.17
2018-07-06T04:49:46.036Z,101086.93
2018-07-06T04:52:39.847Z,101090.50
2018-07-06T04:55:33.606Z,101095.79
2018-07-06T04:58:27.250Z,101090.73
2018-07-06T05:01:20.797Z,101096.80
2018-07-06T05:04:14.740Z,101094.89
2018-07-06T05:07:08.574Z,101093.23
2018-07-06T05:10:02.422Z,101104.53
2018-07-06T05:12:56.057Z,101100.36
2018-07-06T05:15:49.849Z,101102.52
2018-07-06T05:18:43.447Z,101107.48
2018-07-06T05:21:31.341Z,101112.23
2018-07-06T05:24:24.974Z,101109.59
2018-07-06T05:27:18.709Z,101112.66
2018-07-06T05:30:12.382Z,101119.25
2018-07-06T05:33:05.911Z,101117.78
2018-07-06T05:35:59.317Z,101117.17
2018-07-06T05:38:53.383Z,101122.53
2018-07-06T05:41:46.953Z,101127.53
2018-07-06T05:44:40.572Z,101125.44
2018-07-06T05:47:34.187Z,101131.14
2018-07-06T05:50:27.856Z,101129.75
2018-07-06T05:53:21.482Z,101136.16
2018-07-06T05:56:15.298Z,101133.98
2018-07-06T05:59:09.049Z,101135.91
2018-07-06T06:02:02.937Z,101136.92
2018-07-06T06:04:56.450Z,101135.58
2018-07-06T06:07:31.404Z,101137.31
2018-07-06T06:10:01.825Z,101136.92
2018-07-06T06:12:32.635Z,101142.55
2018-07-06T06:15:03.676Z,101146.13
2018-07-06T06:17:34.443Z,101145.07
2018-07-06T06:20:05.207Z,101151.08
2018-07-06T06:22:36.274Z,101153.23
2018-07-06T06:25:07.008Z,101159.33
2018-07-06T06:27:38.069Z,101160.98
2018-07-06T06:30:09.129Z,101168.89
2018-07-06T06:32:40.550Z,101166.11
2018-07-06T06:35:11.605Z,101167.18
2018-07-06T06:37:43.750Z,101171.68
2018-07-06T06:40:14.573Z,101174.78
2018-07-06T06:42:45.408Z,101181.60
2018-07-06T06:45:16.537Z,101181.31
2018-07-06T06:47:47.598Z,101186.08
2018-07-06T06:50:18.663Z,101184.44
2018-07-06T06:52:49.888Z,101191.48
2018-07-06T06:55:21.034Z,101186.85
2018-07-06T06:57:52.055Z,101185.67
2018-07-06T07:00:27.533Z,101183.31
2018-07-06T07:02:54.097Z,101187.72
2018-07-06T07:05:25.212Z,101193.83
2018-07-06T07:07:56.375Z,101189.45
2018-07-06T07:10:27.471Z,101193.40
2018-07-06T07:12:58.580Z,101194.66
2018-07-06T07:15:29.998Z,101198.09
2018-07-06T07:18:01.064Z,101195.37
2018-07-06T07:20:32.183Z,101198.80
2018-07-06T07:23:03.351Z,101204.41
2018-07-06T07:25:34.427Z,101207.06
2018-07-06T07:28:05.711Z,101208.23
2018-07-06T07:30:36.798Z,101201.95
2018-07-06T07:33:07.906Z,101204.81
2018-07-06T07:35:38.757Z,101210.16
2018-07-06T07:38:09.410Z,101216.84
2018-07-06T07:40:40.396Z,101210.70
2018-07-06T07:43:11.971Z,101219.95
2018-07-06T07:45:43.385Z,101219.41
2018-07-06T07:48:14.776Z,101218.11
2018-07-06T07:51:06.090Z,101218.90
2018-07-06T07:53:53.722Z,101205.32
2018-07-06T07:56:24.688Z,101210.23
2018-07-06T07:58:55.727Z,101213.34
2018-07-06T08:01:27.027Z,101213.53
2018-07-06T08:03:57.972Z,101224.69
2018-07-06T08:06:29.320Z,101225.75
2018-07-06T08:09:00.875Z,101224.03
2018-07-06T08:11:35.446Z,101225.41
2018-07-06T08:14:05.044Z,101225.20
2018-07-06T08:16:35.482Z,101230.96
2018-07-06T08:19:07.633Z,101226.78
2018-07-06T08:21:38.731Z,101229.16
2018-07-06T08:24:09.705Z,101224.02
2018-07-06T08:26:40.335Z,101222.52
2018-07-06T08:29:11.560Z,101231.03
2018-07-06T08:31:43.024Z,101230.86
2018-07-06T08:34:30.971Z,101228.64
2018-07-06T08:37:49.012Z,101232.82
2018-07-06T08:40:21.258Z,101229.15
2018-07-06T08:43:01.039Z,101229.73
2018-07-06T08:45:33.480Z,101226.05
2018-07-06T08:48:04.513Z,101225.58
2018-07-06T08:50:35.566Z,101227.23
2018-07-06T08:53:07.138Z,101227.54
2018-07-06T08:55:38.196Z,101226.84
2018-07-06T08:58:09.277Z,101226.94
2018-07-06T09:00:40.412Z,101225.39
2018-07-06T09:03:11.280Z,101226.09
2018-07-06T09:05:42.357Z,101232.63
2018-07-06T09:08:13.843Z,101226.76
2018-07-06T09:10:44.805Z,101237.03
2018-07-06T09:13:15.976Z,101221.81
2018-07-06T09:15:46.878Z,101232.48
2018-07-06T09:18:17.897Z,101231.73
2018-07-06T09:20:48.922Z,101232.48
2018-07-06T09:23:19.953Z,101236.09
2018-07-06T09:25:51.165Z,101235.75
2018-07-06T09:28:22.279Z,101236.20
2018-07-06T09:30:53.544Z,101233.53
2018-07-06T09:33:24.935Z,101235.24
2018-07-06T09:35:56.102Z,101233.33
2018-07-06T09:38:27.358Z,101231.98
2018-07-06T09:40:58.371Z,101238.35
2018-07-06T09:43:29.422Z,101228.51
2018-07-06T09:46:00.594Z,101220.09
2018-07-06T09:48:31.341Z,101217.69
2018-07-06T09:51:02.334Z,101218.33
2018-07-06T09:53:33.536Z,101221.10
2018-07-06T09:56:04.904Z,101218.70
2018-07-06T09:58:35.689Z,101224.91
2018-07-06T10:01:06.790Z,101213.11
2018-07-06T10:03:37.830Z,101222.19
2018-07-06T10:06:08.954Z,101217.33
2018-07-06T10:08:40.336Z,101223.76
2018-07-06T10:11:11.909Z,101221.59
2018-07-06T10:13:43.143Z,101217.99
2018-07-06T10:16:14.596Z,101211.95
2018-07-06T10:18:45.836Z,101201.52
2018-07-06T10:21:17.455Z,101206.24
2018-07-06T10:23:48.647Z,101215.70
2018-07-06T10:26:20.089Z,101212.27
2018-07-06T10:30:05.762Z,101212.87
2018-07-06T10:32:36.682Z,101213.80
2018-07-06T10:35:08.151Z,101218.02
2018-07-06T10:37:39.308Z,101218.03
2018-07-06T10:40:10.759Z,101213.13
2018-07-06T10:42:41.608Z,101220.27
2018-07-06T10:45:12.651Z,101216.08
2018-07-06T10:47:43.858Z,101215.48
2018-07-06T10:50:14.847Z,101212.47
2018-07-06T10:52:45.845Z,101207.20
2018-07-06T10:55:16.901Z,101208.45
2018-07-06T10:57:48.049Z,101207.76
2018-07-06T11:00:19.373Z,101211.56
2018-07-06T11:02:50.363Z,101217.88
2018-07-06T11:05:21.344Z,101213.95
2018-07-06T11:07:52.476Z,101209.33
2018-07-06T11:10:23.859Z,101201.11
2018-07-06T11:12:54.549Z,101203.68
2018-07-06T11:15:25.998Z,101207.16
2018-07-06T11:17:57.018Z,101211.84
2018-07-06T11:20:28.125Z,101192.92
2018-07-06T11:22:59.112Z,101205.45
2018-07-06T11:25:29.962Z,101208.81
2018-07-06T11:28:00.835Z,101207.69
2018-07-06T11:30:32.264Z,101199.47
2018-07-06T11:33:03.271Z,101201.60
2018-07-06T11:35:35.034Z,101196.48
2018-07-06T11:38:06.187Z,101199.39
2018-07-06T11:40:37.309Z,101200.92
2018-07-06T11:43:08.017Z,101196.98
2018-07-06T11:45:39.286Z,101198.56
2018-07-06T11:48:10.550Z,101197.13
2018-07-06T11:50:41.966Z,101201.88
2018-07-06T11:53:13.077Z,101193.86
2018-07-06T11:55:44.148Z,101191.34
2018-07-06T11:58:15.238Z,101189.56
2018-07-06T12:00:46.470Z,101195.30
2018-07-06T12:03:17.833Z,101201.80
2018-07-06T12:05:48.852Z,101185.47
2018-07-06T12:08:19.833Z,101186.00
2018-07-06T12:10:51.169Z,101193.34
2018-07-06T12:13:22.506Z,101192.44
2018-07-06T12:15:54.288Z,101194.52
2018-07-06T12:18:25.438Z,101191.17
2018-07-06T12:20:56.821Z,101205.44
2018-07-06T12:23:28.114Z,101196.27
2018-07-06T12:25:59.102Z,101194.09
2018-07-06T12:28:30.138Z,101181.28
2018-07-06T12:31:01.469Z,101191.31
2018-07-06T12:33:32.566Z,101190.70
2018-07-06T12:36:04.138Z,101185.34
2018-07-06T12:38:34.886Z,101192.91
2018-07-06T12:41:07.777Z,101189.66
2018-07-06T12:43:38.843Z,101194.25
2018-07-06T12:46:10.258Z,101185.16
2018-07-06T12:48:41.294Z,101192.82
2018-07-06T12:51:12.707Z,101185.94
2018-07-06T12:53:43.841Z,101188.41
2018-07-06T12:56:15.087Z,101187.18
2018-07-06T12:58:46.334Z,101186.89
2018-07-06T13:01:17.410Z,101176.96
2018-07-06T13:03:49.154Z,101183.60
2018-07-06T13:06:20.157Z,101178.72
2018-07-06T13:08:51.499Z,101181.58
2018-07-06T13:11:22.524Z,101178.95
2018-07-06T13:13:53.292Z,101176.55
2018-07-06T13:16:24.157Z,101182.73
2018-07-06T13:18:55.311Z,101173.66
2018-07-06T13:21:26.320Z,101184.14
2018-07-06T13:23:57.389Z,101179.73
2018-07-06T13:26:28.837Z,101179.91
2018-07-06T13:28:59.890Z,101179.83
2018-07-06T13:31:30.893Z,101176.53
2018-07-06T13:34:02.117Z,101172.05
2018-07-06T13:36:33.079Z,101172.97
2018-07-06T13:39:04.800Z,101171.02
2018-07-06T13:41:36.021Z,101175.83
2018-07-06T13:44:07.212Z,101180.03
2018-07-06T13:46:38.280Z,101179.86
2018-07-06T13:49:09.796Z,101176.53
2018-07-06T13:51:40.860Z,101195.80
2018-07-06T13:54:11.967Z,101190.16
2018-07-06T13:56:43.267Z,101192.09
2018-07-06T13:59:14.387Z,101190.78
2018-07-06T14:01:45.494Z,101185.78
2018-07-06T14:04:16.280Z,101185.59
2018-07-06T14:06:47.301Z,101185.66
2018-07-06T14:09:18.313Z,101181.50
2018-07-06T14:11:49.333Z,101178.26
2018-07-06T14:14:20.584Z,101185.99
2018-07-06T14:16:51.580Z,101192.14
2018-07-06T14:19:23.154Z,101199.14
2018-07-06T14:21:54.449Z,101201.19
2018-07-06T14:24:25.444Z,101197.73
2018-07-06T14:26:56.582Z,101189.19
2018-07-06T14:29:27.622Z,101196.37
2018-07-06T14:31:58.607Z,101194.11
2018-07-06T14:34:29.857Z,101190.09
2018-07-06T14:37:01.206Z,101197.03
2018-07-06T14:39:32.200Z,101193.81
2018-07-06T14:42:03.199Z,101195.06
2018-07-06T14:44:34.522Z,101194.79
2018-07-06T14:47:05.595Z,101203.49
2018-07-06T14:49:37.254Z,101202.64
2018-07-06T14:52:08.318Z,101205.03
2018-07-06T14:54:39.362Z,101201.62
2018-07-06T14:57:10.412Z,101203.13
2018-07-06T14:59:41.585Z,101199.42
2018-07-06T15:02:13.075Z,101200.48
2018-07-06T15:04:44.449Z,101201.39
2018-07-06T15:07:15.336Z,101199.55
2018-07-06T15:09:46.313Z,101199.37
2018-07-06T15:12:17.661Z,101196.46
2018-07-06T15:14:49.454Z,101201.81
2018-07-06T15:17:20.470Z,101203.20
2018-07-06T15:19:51.462Z,101196.70
2018-07-06T15:22:22.537Z,101202.11
2018-07-06T15:24:53.624Z,101201.09
2018-07-06T15:27:24.829Z,101214.28
2018-07-06T15:29:56.083Z,101206.33
2018-07-06T15:32:27.071Z,101215.19
2018-07-06T15:34:58.776Z,101216.00
2018-07-06T15:37:29.811Z,101219.66
2018-07-06T15:40:00.963Z,101211.98
2018-07-06T15:42:32.532Z,101213.20
2018-07-06T15:45:03.873Z,101208.16
2018-07-06T15:47:35.126Z,101209.59
2018-07-06T15:50:06.211Z,101212.41
2018-07-06T15:52:37.362Z,101209.14
2018-07-06T15:55:08.447Z,101210.30
2018-07-06T15:57:39.515Z,101215.61
2018-07-06T16:00:10.519Z,101215.78
2018-07-06T16:02:41.619Z,101215.28
2018-07-06T16:05:12.712Z,101211.01
2018-07-06T16:07:43.814Z,101212.42
2018-07-06T16:10:14.911Z,101211.80
2018-07-06T16:12:46.124Z,101216.98
2018-07-06T16:15:17.128Z,101204.53
2018-07-06T16:17:48.598Z,101212.98
2018-07-06T16:20:19.992Z,101218.69
2018-07-06T16:22:51.359Z,101221.53
2018-07-06T16:25:22.319Z,101208.45
2018-07-06T16:27:53.809Z,101204.05
2018-07-06T16:30:25.422Z,101210.23
2018-07-06T16:32:56.497Z,101206.44
2018-07-06T16:35:27.654Z,101211.06
2018-07-06T16:37:58.758Z,101209.05
2018-07-06T16:40:30.655Z,101219.80
2018-07-06T16:43:02.241Z,101213.59
2018-07-06T16:45:33.402Z,101213.46
2018-07-06T16:48:04.523Z,101214.33
2018-07-06T16:50:35.626Z,101209.03
2018-07-06T16:53:06.997Z,101209.22
2018-07-06T16:55:38.585Z,101209.47
2018-07-06T16:58:09.932Z,101217.80
2018-07-06T17:00:41.276Z,101212.78
2018-07-06T17:03:12.461Z,101207.66
2018-07-06T17:05:43.497Z,101216.80
2018-07-06T17:08:14.688Z,101212.84
2018-07-06T17:10:45.747Z,101218.73
2018-07-06T17:13:17.118Z,101214.97
2018-07-06T17:15:48.417Z,101219.15
2018-07-06T17:18:19.552Z,101218.92
2018-07-06T17:20:50.642Z,101216.66
2018-07-06T17:23:22.113Z,101213.50
2018-07-06T17:25:53.126Z,101220.61
2018-07-06T17:28:24.224Z,101216.84
2018-07-06T17:30:55.364Z,101219.03
2018-07-06T17:33:28.665Z,101218.02
2018-07-06T17:36:00.009Z,101216.91
2018-07-06T17:38:31.336Z,101223.34
2018-07-06T17:41:02.574Z,101224.30
2018-07-06T17:43:33.554Z,101224.00
2018-07-06T17:46:05.422Z,101224.98
2018-07-06T17:48:36.556Z,101227.86
2018-07-06T17:51:07.914Z,101228.55
2018-07-06T17:53:39.137Z,101229.85
2018-07-06T17:56:10.301Z,101226.03
2018-07-06T17:58:41.603Z,101231.83
2018-07-06T18:01:12.780Z,101220.61
2018-07-06T18:03:43.588Z,101221.72
2018-07-06T18:06:14.698Z,101218.02
2018-07-06T18:08:46.257Z,101228.11
2018-07-06T18:11:17.463Z,101220.48
2018-07-06T18:13:48.525Z,101226.98
2018-07-06T18:16:20.306Z,101223.73
2018-07-06T18:18:52.067Z,101228.12
2018-07-06T18:21:23.178Z,101224.70
2018-07-06T18:23:54.114Z,101227.73
2018-07-06T18:26:25.170Z,101228.25
2018-07-06T18:28:56.245Z,101227.20
2018-07-06T18:31:27.966Z,101232.75
2018-07-06T18:33:59.074Z,101230.53
2018-07-06T18:36:30.207Z,101232.23
2018-07-06T18:39:01.084Z,101234.69
2018-07-06T18:41:32.662Z,101240.03
2018-07-06T18:44:03.733Z,101238.05
2018-07-06T18:46:34.842Z,101240.48
2018-07-06T18:49:06.621Z,101245.73
2018-07-06T18:51:37.822Z,101238.78
2018-07-06T18:54:08.952Z,101242.14
2018-07-06T18:56:40.409Z,101240.68
2018-07-06T18:59:11.522Z,101235.89
2018-07-06T19:01:42.804Z,101237.82
2018-07-06T19:04:13.866Z,101231.55
2018-07-06T19:06:45.155Z,101237.02
2018-07-06T19:09:16.962Z,101240.05
2018-07-06T19:11:48.160Z,101242.72
2018-07-06T19:14:19.251Z,101240.05
2018-07-06T19:16:50.467Z,101247.22
2018-07-06T19:19:21.832Z,101254.34
2018-07-06T19:21:53.006Z,101253.16
2018-07-06T19:24:24.075Z,101258.70
2018-07-06T19:26:55.160Z,101258.91
2018-07-06T19:29:25.966Z,101268.66
2018-07-06T19:31:57.363Z,101275.98
2018-07-06T19:34:28.835Z,101273.27
2018-07-06T19:37:04.660Z,101283.42
2018-07-06T19:39:36.339Z,101285.63
2018-07-06T19:42:10.863Z,101291.37
2018-07-06T19:44:42.270Z,101287.53
2018-07-06T19:47:18.735Z,101285.83
2018-07-06T19:49:50.574Z,101295.78
2018-07-06T19:52:24.327Z,101299.37
2018-07-06T19:54:55.695Z,101307.02
2018-07-06T19:57:26.946Z,101310.05
2018-07-06T19:59:58.594Z,101314.90
2018-07-06T20:02:30.009Z,101319.88
2018-07-06T20:05:02.082Z,101313.20
2018-07-06T20:07:33.645Z,101318.54
2018-07-06T20:10:05.443Z,101316.36
2018-07-06T20:12:36.671Z,101321.78
2018-07-06T20:15:10.562Z,101327.23
2018-07-06T20:17:43.807Z,101324.16
2018-07-06T20:20:20.928Z,101330.61
2018-07-06T20:22:56.031Z,101326.38
2018-07-06T20:25:32.257Z,101336.50
2018-07-06T20:28:07.407Z,101339.72
2018-07-06T20:30:41.352Z,101345.47
2018-07-06T20:33:15.548Z,101338.55
2018-07-06T20:35:48.644Z,101340.56
2018-07-06T20:38:21.448Z,101347.19
2018-07-06T20:40:56.609Z,101350.85
2018-07-06T20:43:32.012Z,101355.12
2018-07-06T20:46:08.466Z,101353.87
2018-07-06T20:48:44.125Z,101359.45
2018-07-06T20:51:19.636Z,101361.53
2018-07-06T20:53:55.556Z,101364.31
2018-07-06T20:56:30.165Z,101352.78
2018-07-06T20:59:04.636Z,101359.70
2018-07-06T21:01:39.005Z,101363.52
2018-07-06T21:04:12.102Z,101368.67
2018-07-06T21:06:46.771Z,101369.19
2018-07-06T21:09:22.521Z,101362.83
2018-07-06T21:11:56.968Z,101366.86
2018-07-06T21:14:28.085Z,101371.84
2018-07-06T21:17:03.022Z,101373.52
2018-07-06T21:19:38.710Z,101381.25
2018-07-06T21:22:15.988Z,101385.73
2018-07-06T21:24:52.438Z,101378.88
2018-07-06T21:27:27.590Z,101382.91
2018-07-06T21:30:02.799Z,101349.24
2018-07-06T21:32:37.597Z,101385.14
2018-07-06T21:35:12.521Z,101388.82
2018-07-06T21:37:48.832Z,101390.89
2018-07-06T21:40:24.669Z,101398.16
2018-07-06T21:42:56.237Z,101392.02
2018-07-06T21:45:31.448Z,101396.50
2018-07-06T21:48:07.787Z,101392.42
2018-07-06T21:50:43.786Z,101401.98
2018-07-06T21:53:19.277Z,101395.23
2018-07-06T21:55:50.556Z,101406.26
2018-07-06T21:58:25.515Z,101408.80
2018-07-06T22:01:01.438Z,101406.64
2018-07-06T22:03:34.838Z,101406.03
2018-07-06T22:06:05.854Z,101410.91
2018-07-06T22:08:37.324Z,101409.58
2018-07-06T22:11:08.429Z,101412.94
2018-07-06T22:13:40.116Z,101408.34
2018-07-06T22:16:11.586Z,101416.83
2018-07-06T22:18:43.090Z,101421.16
2018-07-06T22:21:14.473Z,101422.86
2018-07-06T22:23:46.405Z,101422.38
2018-07-06T22:26:17.518Z,101427.21
2018-07-06T22:28:49.135Z,101426.96
2018-07-06T22:31:20.164Z,101426.48
2018-07-06T22:33:51.154Z,101431.41
2018-07-06T22:36:22.262Z,101426.80
2018-07-06T22:38:53.035Z,101416.17
2018-07-06T22:41:24.255Z,101424.75
2018-07-06T22:43:55.515Z,101423.28
2018-07-06T22:46:26.568Z,101417.63
2018-07-06T22:48:57.607Z,101418.83
2018-07-06T22:51:28.630Z,101424.52
2018-07-06T22:54:00.417Z,101417.45
2018-07-06T22:56:33.383Z,101420.96
2018-07-06T22:59:04.718Z,101427.97
2018-07-06T23:01:35.758Z,101427.95
2018-07-06T23:04:06.896Z,101426.34
2018-07-06T23:06:38.811Z,101428.12
2018-07-06T23:09:10.177Z,101432.24
2018-07-06T23:11:41.028Z,101428.26
2018-07-06T23:14:11.920Z,101429.23
2018-07-06T23:16:43.338Z,101423.91
2018-07-06T23:19:14.347Z,101431.41
2018-07-06T23:21:45.337Z,101430.31
2018-07-06T23:24:16.712Z,101428.83
2018-07-06T23:26:47.749Z,101429.55
2018-07-06T23:29:18.822Z,101436.97
2018-07-06T23:31:49.856Z,101430.66
2018-07-06T23:34:20.930Z,101440.18
2018-07-06T23:36:52.296Z,101432.56
2018-07-06T23:39:23.290Z,101439.67
2018-07-06T23:41:54.852Z,101445.39
2018-07-06T23:44:25.702Z,101439.35
2018-07-06T23:46:57.090Z,101439.73
2018-07-06T23:49:28.106Z,101438.78
2018-07-06T23:51:59.484Z,101443.59
2018-07-06T23:54:30.509Z,101442.48
2018-07-06T23:57:01.477Z,101438.32
2018-07-06T23:59:32.470Z,101450.01
